Flight Track Log - Related Links

Times and Time Zones

All times are in EDT time to prevent confusion due to time zone crossing. See the N700CS flight status page for this flight to view local times or setup timezone preferences in your user account.

Time Position Orientation Groundspeed Altitude Reporting Facility
EDT Latitude Longitude Course Direction KTS MPH feet Rate Location/Type
Wed 03:35:42 PM 42.9500 -87.8833 145° Southeast 126 145 1,100  Level KMKE
Wed 03:36:31 PM 42.9228 -87.8569 145° Southeast 135 155 2,000 1,297 Climbing Chicago Center
Wed 03:37:33 PM 42.8917 -87.8194 139° Southeast 145 167 3,500 1,429 Climbing Chicago Center
Wed 03:38:37 PM 42.8461 -87.8117 173° South 166 191 5,000 1,728 Climbing Chicago Center
Wed 03:39:38 PM 42.7917 -87.8017 172° South 163 188 7,100 1,756 Climbing Chicago Center
Wed 03:40:40 PM 42.7461 -87.7919 171° South 166 191 8,600 1,452 Climbing Chicago Center
Wed 03:41:42 PM 42.6983 -87.7822 171° South 173 199 10,100 1,500 Climbing Chicago Center
Wed 03:42:44 PM 42.6494 -87.7719 171° South 176 203 11,700 1,452 Climbing Chicago Center
Wed 03:43:46 PM 42.5986 -87.7606 171° South 183 211 13,100 1,403 Climbing Chicago Center
Wed 03:44:48 PM 42.5467 -87.7522 173° South 185 213 14,600 1,392 Climbing Chicago Center
Wed 03:45:51 PM 42.4872 -87.7375 170° South 192 221 16,000 1,344 Climbing Chicago Center
Wed 03:46:53 PM 42.4333 -87.7286 173° South 195 224 17,400 968 Climbing Chicago Center
Wed 03:47:55 PM 42.3753 -87.7461 193° South 225 259 18,000 871 Climbing Chicago Center
Wed 03:48:57 PM 42.2989 -87.7656 191° South 235 270 19,200 1,113 Climbing Chicago Center
Wed 03:49:59 PM 42.2336 -87.7811 190° South 237 273 20,300 919 Climbing Chicago Center
Wed 03:51:01 PM 42.1667 -87.7972 190° South 243 280 21,100 823 Climbing Chicago Center
Wed 03:52:03 PM 42.0978 -87.8133 190° South 248 285 22,000 823 Climbing Chicago Center
Wed 03:53:05 PM 42.0283 -87.8297 190° South 251 289 22,800 768 Climbing Chicago Center
Wed 03:54:08 PM 41.9581 -87.8464 190° South 254 292 23,600 816 Climbing Chicago Center
Wed 03:55:10 PM 41.8706 -87.8669 190° South 264 304 24,500 726 Climbing Chicago Center
Wed 03:56:12 PM 41.7967 -87.8844 190° South 266 306 25,100 581 Climbing Chicago Center
Wed 03:57:14 PM 41.7225 -87.9019 190° South 268 308 25,700 581 Climbing Chicago Center
Wed 03:58:16 PM 41.6478 -87.9194 190° South 270 311 26,300 532 Climbing Chicago Center
Wed 03:59:18 PM 41.5725 -87.9369 190° South 273 314 26,800 532 Climbing Chicago Center
Wed 04:00:20 PM 41.4953 -87.9550 190° South 275 316 27,400 528 Climbing Chicago Center
Wed 04:01:23 PM 41.4175 -87.9733 190° South 277 319 27,900 288 Climbing Chicago Center
Wed 04:02:25 PM 41.3361 -87.9922 190° South 289 333 28,000 48 Climbing Chicago Center
Wed 04:03:27 PM 41.2364 -88.0150 190° South 299 344 28,000  Level Chicago Center
Wed 04:04:29 PM 41.1522 -88.0344 190° South 303 349 28,000  Level Chicago Center
Wed 04:05:31 PM 41.0678 -88.0539 190° South 305 351 28,000  Level Chicago Center
Wed 04:06:33 PM 41.0069 -88.1192 219° Southwest 281 323 28,000  Level Chicago Center
Wed 04:07:35 PM 40.9483 -88.1903 223° Southwest 283 326 28,000  Level Chicago Center
Wed 04:08:38 PM 40.8903 -88.2608 223° Southwest 284 327 28,000  Level Chicago Center
Wed 04:09:40 PM 40.8211 -88.3447 223° Southwest 283 326 28,000  Level Chicago Center
Wed 04:10:42 PM 40.7633 -88.4144 222° Southwest 282 325 28,000  Level Chicago Center
Wed 04:11:44 PM 40.7056 -88.4842 222° Southwest 282 325 28,000  Level Chicago Center
Wed 04:12:46 PM 40.6467 -88.5553 223° Southwest 282 325 28,000  Level Chicago Center
Wed 04:13:48 PM 40.5894 -88.6239 222° Southwest 283 326 28,000  Level Chicago Center
Wed 04:14:50 PM 40.5311 -88.6939 222° Southwest 283 326 28,000  Level Chicago Center
Wed 04:15:52 PM 40.4644 -88.7736 222° Southwest 283 326 28,000  Level Chicago Center
Wed 04:16:55 PM 40.4061 -88.8433 222° Southwest 284 327 28,000  Level Chicago Center
Wed 04:17:57 PM 40.3472 -88.9131 222° Southwest 284 327 28,000  Level Chicago Center
Wed 04:18:59 PM 40.2883 -88.9831 222° Southwest 284 327 28,000  Level Chicago Center
Wed 04:20:01 PM 40.2292 -89.0531 222° Southwest 284 327 28,000  Level Chicago Center
Wed 04:21:03 PM 40.1583 -89.1367 222° Southwest 285 328 28,000  Level Chicago Center
Wed 04:21:42 PM 40.1228 -89.1786 222° Southwest 285 328 28,000  Level Kansas City Center
Wed 04:22:44 PM 40.0631 -89.2486 222° Southwest 286 329 28,000  Level Kansas City Center
Wed 04:24:49 PM 39.9442 -89.3878 222° Southwest 286 329 28,000  Level Kansas City Center
Wed 04:25:53 PM 39.8850 -89.4569 222° Southwest 286 329 28,000  Level Kansas City Center
Wed 04:26:54 PM 39.8136 -89.5400 222° Southwest 286 329 28,000  Level Kansas City Center
Wed 04:27:55 PM 39.7544 -89.6086 222° Southwest 285 328 28,000  Level Kansas City Center
Wed 04:28:58 PM 39.6917 -89.6817 222° Southwest 284 327 28,000  Level Kansas City Center
Wed 04:29:59 PM 39.6336 -89.7483 221° Southwest 282 325 28,000  Level Kansas City Center
Wed 04:31:03 PM 39.5764 -89.8139 221° Southwest 278 320 28,000  Level Kansas City Center
Wed 04:32:04 PM 39.5197 -89.8794 222° Southwest 277 319 28,000  Level Kansas City Center
Wed 04:33:05 PM 39.4633 -89.9439 221° Southwest 275 316 28,000  Level Kansas City Center
Wed 04:34:09 PM 39.4069 -90.0083 221° Southwest 273 314 28,000  Level Kansas City Center
Wed 04:35:10 PM 39.3392 -90.0856 221° Southwest 272 313 28,000  Level Kansas City Center
Wed 04:36:14 PM 39.2831 -90.1497 222° Southwest 272 313 28,000  Level Kansas City Center
Wed 04:37:14 PM 39.2275 -90.2128 221° Southwest 270 311 28,000  Level Kansas City Center
Wed 04:38:18 PM 39.1750 -90.2725 221° Southwest 265 305 28,000  Level Kansas City Center
Wed 04:39:18 PM 39.1194 -90.3353 221° Southwest 259 298 28,000  Level Kansas City Center
Wed 04:40:22 PM 39.0564 -90.4064 221° Southwest 256 295 28,000  Level Kansas City Center
Wed 04:41:23 PM 39.0039 -90.4653 221° Southwest 254 292 28,000  Level Kansas City Center
Wed 04:42:26 PM 38.9517 -90.5239 221° Southwest 253 291 28,000  Level Kansas City Center
Wed 04:43:27 PM 38.8933 -90.5894 221° Southwest 252 290 28,000  Level Kansas City Center
Wed 04:44:31 PM 38.8411 -90.6481 221° Southwest 251 289 28,000  Level Kansas City Center
Wed 04:45:33 PM 38.7858 -90.7094 221° Southwest 250 288 28,000  Level Kansas City Center
Wed 04:46:35 PM 38.7339 -90.7675 221° Southwest 250 288 28,000  Level Kansas City Center
Wed 04:47:36 PM 38.6819 -90.8253 221° Southwest 250 288 28,000  Level Kansas City Center
Wed 04:48:39 PM 38.6297 -90.8833 221° Southwest 250 288 28,000  Level Kansas City Center
Wed 04:49:40 PM 38.5772 -90.9411 221° Southwest 250 288 28,000  Level Kansas City Center
Wed 04:50:44 PM 38.5136 -91.0114 221° Southwest 251 289 28,000  Level Kansas City Center
Wed 04:51:45 PM 38.4606 -91.0700 221° Southwest 252 290 28,000  Level Kansas City Center
Wed 04:52:46 PM 38.4072 -91.1289 221° Southwest 253 291 28,000  Level Kansas City Center
Wed 04:53:50 PM 38.3536 -91.1878 221° Southwest 254 292 28,000  Level Kansas City Center
Wed 04:54:50 PM 38.2994 -91.2469 221° Southwest 255 293 28,000  Level Kansas City Center
Wed 04:55:52 PM 38.2453 -91.3058 220° Southwest 256 295 28,000  Level Kansas City Center
Wed 04:56:56 PM 38.1806 -91.3767 221° Southwest 256 295 28,000  Level Kansas City Center
Wed 04:57:57 PM 38.1269 -91.4350 221° Southwest 256 295 28,000  Level Kansas City Center
Wed 04:59:00 PM 38.0719 -91.4947 221° Southwest 258 297 28,000  Level Kansas City Center
Wed 05:00:01 PM 38.0164 -91.5550 221° Southwest 259 298 28,000  Level Kansas City Center
Wed 05:01:05 PM 37.9608 -91.6150 220° Southwest 260 299 28,000  Level Kansas City Center
Wed 05:02:05 PM 37.8947 -91.6861 220° Southwest 259 298 28,000  Level Kansas City Center
Wed 05:03:07 PM 37.8403 -91.7450 221° Southwest 257 296 28,000  Level Kansas City Center
Wed 05:04:10 PM 37.7853 -91.8042 220° Southwest 257 296 28,000  Level Kansas City Center
Wed 05:05:11 PM 37.7297 -91.8639 220° Southwest 258 297 28,000  Level Kansas City Center
Wed 05:06:15 PM 37.6742 -91.9233 220° Southwest 259 298 28,000  Level Kansas City Center
Wed 05:07:17 PM 37.6181 -91.9831 220° Southwest 260 299 28,000  Level Kansas City Center
Wed 05:08:17 PM 37.5619 -92.0428 220° Southwest 261 300 28,000  Level Kansas City Center
Wed 05:09:21 PM 37.4942 -92.1150 220° Southwest 263 303 28,000  Level Kansas City Center
Wed 05:10:22 PM 37.4378 -92.1750 220° Southwest 263 303 28,000  Level Kansas City Center
Wed 05:11:26 PM 37.3819 -92.2342 220° Southwest 262 302 28,000  Level Kansas City Center
Wed 05:12:26 PM 37.3258 -92.2933 220° Southwest 262 302 28,000  Level Kansas City Center
Wed 05:13:30 PM 37.2697 -92.3528 220° Southwest 262 302 28,000  Level Kansas City Center
Wed 05:14:31 PM 37.2136 -92.4117 220° Southwest 262 302 28,000  Level Kansas City Center
Wed 05:15:35 PM 37.1572 -92.4711 220° Southwest 263 303 28,000  Level Kansas City Center
Wed 05:16:35 PM 37.0892 -92.5422 220° Southwest 263 303 28,000  Level Kansas City Center
Wed 05:17:39 PM 37.0328 -92.6011 220° Southwest 264 304 28,000  Level Kansas City Center
Wed 05:18:40 PM 36.9764 -92.6603 220° Southwest 264 304 28,000  Level Kansas City Center
Wed 05:19:41 PM 36.9200 -92.7189 220° Southwest 263 303 28,000  Level Kansas City Center
Wed 05:20:42 PM 36.8633 -92.7778 220° Southwest 264 304 28,000  Level Kansas City Center
Wed 05:21:46 PM 36.8069 -92.8364 220° Southwest 263 303 28,000  Level Kansas City Center
Wed 05:22:47 PM 36.7506 -92.8947 220° Southwest 263 303 28,000  Level Kansas City Center
Wed 05:23:51 PM 36.6828 -92.9647 220° Southwest 263 303 28,000  Level Kansas City Center
Wed 05:24:52 PM 36.6261 -93.0231 220° Southwest 263 303 28,000  Level Kansas City Center
Wed 05:25:34 PM 36.5933 -93.0569 220° Southwest 263 303 28,000  Level Memphis Center
Wed 05:26:36 PM 36.5253 -93.1269 220° Southwest 264 304 28,000  Level Memphis Center
Wed 05:27:38 PM 36.4689 -93.1847 219° Southwest 263 303 28,000  Level Memphis Center
Wed 05:28:40 PM 36.4164 -93.2383 219° Southwest 263 303 28,000  Level Memphis Center
Wed 05:29:42 PM 36.3614 -93.2956 220° Southwest 261 300 28,000  Level Memphis Center
Wed 05:30:44 PM 36.2961 -93.3628 220° Southwest 258 297 28,000  Level Memphis Center
Wed 05:31:46 PM 36.2406 -93.4197 220° Southwest 256 295 28,000  Level Memphis Center
Wed 05:32:48 PM 36.1883 -93.4733 220° Southwest 254 292 28,000  Level Memphis Center
Wed 05:33:50 PM 36.1347 -93.5283 220° Southwest 253 291 28,000  Level Memphis Center
Wed 05:34:52 PM 36.0811 -93.5831 220° Southwest 252 290 28,000  Level Memphis Center
Wed 05:35:54 PM 36.0275 -93.6378 220° Southwest 251 289 28,000  Level Memphis Center
Wed 05:36:56 PM 35.9631 -93.7036 220° Southwest 251 289 28,000  Level Memphis Center
Wed 05:37:59 PM 35.9092 -93.7581 219° Southwest 251 289 28,000  Level Memphis Center
Wed 05:39:01 PM 35.8558 -93.8125 220° Southwest 251 289 28,000  Level Memphis Center
Wed 05:40:03 PM 35.8028 -93.8661 219° Southwest 250 288 28,000  Level Memphis Center
Wed 05:41:05 PM 35.7494 -93.9200 219° Southwest 249 287 28,000  Level Memphis Center
Wed 05:42:07 PM 35.6856 -93.9847 219° Southwest 249 287 28,000  Level Memphis Center
Wed 05:43:09 PM 35.6322 -94.0383 219° Southwest 249 287 28,000  Level Memphis Center
Wed 05:44:11 PM 35.5789 -94.0919 219° Southwest 249 287 28,000  Level Memphis Center
Wed 05:45:13 PM 35.5236 -94.1472 219° Southwest 249 287 28,000  Level Memphis Center
Wed 05:46:15 PM 35.4717 -94.1994 219° Southwest 249 287 28,000  Level Memphis Center
Wed 05:47:17 PM 35.4175 -94.2536 219° Southwest 250 288 28,000  Level Memphis Center
Wed 05:48:19 PM 35.3536 -94.3172 219° Southwest 251 289 28,000  Level Memphis Center
Wed 05:49:21 PM 35.2981 -94.3728 219° Southwest 252 290 28,000  Level Memphis Center
Wed 05:50:23 PM 35.2431 -94.4275 219° Southwest 253 291 28,000  Level Memphis Center
Wed 05:51:25 PM 35.1881 -94.4819 219° Southwest 254 292 28,000  Level Memphis Center
Wed 05:52:28 PM 35.1331 -94.5367 219° Southwest 255 293 28,000  Level Memphis Center
Wed 05:53:30 PM 35.0775 -94.5917 219° Southwest 255 293 28,000  Level Memphis Center
Wed 05:54:32 PM 35.0106 -94.6578 219° Southwest 256 295 28,000  Level Memphis Center
Wed 05:55:34 PM 34.9544 -94.7128 219° Southwest 256 295 28,000  Level Memphis Center
Wed 05:56:36 PM 34.8986 -94.7678 219° Southwest 257 296 28,000  Level Memphis Center
Wed 05:57:38 PM 34.8567 -94.8358 233° Southwest 251 289 28,000 -48 Level Memphis Center
Wed 05:58:40 PM 34.8178 -94.9069 236° Southwest 251 289 27,900 -387 Descending Memphis Center
Wed 05:59:42 PM 34.7769 -94.9822 237° Southwest 267 307 27,200 -726 Descending Memphis Center
Wed 06:00:44 PM 34.7247 -95.0778 236° Southwest 275 316 26,400 -774 Descending Memphis Center
Wed 06:01:46 PM 34.6825 -95.1553 236° Southwest 277 319 25,600 -726 Descending Memphis Center
Wed 06:02:48 PM 34.6392 -95.2347 236° Southwest 279 321 24,900 -677 Descending Memphis Center
Wed 06:03:50 PM 34.5961 -95.3136 236° Southwest 280 322 24,200 -734 Descending Memphis Center
Wed 06:05:07 PM 34.5378 -95.4219 237° Southwest 281 323 23,200 -518 Descending Fort Worth Center
Wed 06:06:09 PM 34.4806 -95.4819 221° Southwest 282 325 23,000 -97 Descending Fort Worth Center
Wed 06:07:11 PM 34.4069 -95.5111 198° South 281 323 23,000  Level Fort Worth Center
Wed 06:08:14 PM 34.3372 -95.5461 203° Southwest 271 312 23,000  Level Fort Worth Center
Wed 06:09:16 PM 34.2792 -95.6128 224° Southwest 262 302 23,000  Level Fort Worth Center
Wed 06:10:18 PM 34.2192 -95.6639 215° Southwest 265 305 23,000 -48 Level Fort Worth Center
Wed 06:11:20 PM 34.1581 -95.7150 215° Southwest 266 306 22,900 -823 Descending Fort Worth Center
Wed 06:12:22 PM 34.0831 -95.7789 215° Southwest 287 330 21,300 -1,452 Descending Fort Worth Center
Wed 06:13:24 PM 34.0200 -95.8375 218° Southwest 272 313 19,900 -1,645 Descending Fort Worth Center
Wed 06:14:26 PM 33.9681 -95.8897 220° Southwest 242 278 17,900 -1,872 Descending Fort Worth Center
Wed 06:15:29 PM 33.9233 -95.9486 228° Southwest 240 276 16,000 -1,344 Descending Fort Worth Center
Wed 06:16:31 PM 33.8767 -96.0128 229° Southwest 256 295 15,100 -1,016 Descending Fort Worth Center
Wed 06:17:33 PM 33.8186 -96.0925 229° Southwest 262 302 13,900 -1,016 Descending Fort Worth Center
Wed 06:18:35 PM 33.7703 -96.1594 229° Southwest 264 304 13,000 -1,161 Descending Fort Worth Center
Wed 06:19:37 PM 33.7192 -96.2294 229° Southwest 256 295 11,500 -1,248 Descending Fort Worth Center
Wed 06:20:40 PM 33.6717 -96.2947 229° Southwest 258 297 10,400 -1,104 Descending Fort Worth Center
Wed 06:21:42 PM 33.6211 -96.3625 228° Southwest 251 289 9,200 -1,113 Descending Fort Worth Center
Wed 06:22:44 PM 33.5744 -96.4264 229° Southwest 252 290 8,100 -1,113 Descending Fort Worth Center
Wed 06:23:46 PM 33.5267 -96.4922 229° Southwest 248 285 6,900 -1,016 Descending Fort Worth Center
Wed 06:24:48 PM 33.4822 -96.5517 228° Southwest 242 278 6,000 -629 Descending Fort Worth Center
Wed 06:25:50 PM 33.4386 -96.6033 225° Southwest 226 260 5,600 -720 Descending Fort Worth Center
Wed 06:26:53 PM 33.3778 -96.6428 208° Southwest 231 266 4,500 -1,056 Descending Fort Worth Center
Wed 06:27:55 PM 33.3214 -96.6800 209° Southwest 232 267 3,400 -726 Descending Fort Worth Center
Wed 06:28:57 PM 33.2606 -96.7206 209° Southwest 232 267 3,000 -194 Descending Fort Worth Center
Wed 06:29:59 PM 33.2086 -96.7556 209° Southwest 219 252 3,000  Level Fort Worth Center
Wed 06:31:01 PM 33.1517 -96.7928 209° Southwest 218 251 3,000 -288 Level Fort Worth Center
Wed 06:32:04 PM 33.0969 -96.8289 209° Southwest 222 255 2,400 -528 Descending Fort Worth Center
Wed 06:33:06 PM 33.0392 -96.8622 206° Southwest 202 232 1,900 -532 Descending Fort Worth Center
Wed 06:34:08 PM 33.0075 -96.8542 168° South 118 136 1,300 -484 Descending Fort Worth Center
Wed 06:35:10 PM 32.9844 -96.8431 158° South 85 98 900 -242 Descending Fort Worth Center
Wed 06:36:12 PM 32.9639 -96.8353 162° South 85 98 800 -97 Descending Fort Worth Center
Wed 06:38:00 PM 32.9667 -96.8333 North  Level FlightAware Approximate

Login

Don't have an account? Register now (free) for customized features, flight alerts, and more!